sensor_id;sensor_type;location;lat;lon;timestamp;P1;durP1;ratioP1;P2;durP2;ratioP2
45318;SDS011;31057;48.498;32.260;2023-12-28T00:01:53;23.40;;;14.38;;
45318;SDS011;31057;48.498;32.260;2023-12-28T00:05:57;10.70;;;6.97;;
45318;SDS011;31057;48.498;32.260;2023-12-28T00:10:02;10.57;;;5.78;;
45318;SDS011;31057;48.498;32.260;2023-12-28T00:12:05;8.18;;;4.60;;
45318;SDS011;31057;48.498;32.260;2023-12-28T00:14:07;8.38;;;4.82;;
45318;SDS011;31057;48.498;32.260;2023-12-28T00:16:09;9.50;;;5.55;;
45318;SDS011;31057;48.498;32.260;2023-12-28T00:18:11;9.38;;;6.07;;
45318;SDS011;31057;48.498;32.260;2023-12-28T00:20:13;13.70;;;7.43;;
45318;SDS011;31057;48.498;32.260;2023-12-28T00:24:19;22.25;;;12.40;;
45318;SDS011;31057;48.498;32.260;2023-12-28T00:26:22;16.30;;;9.43;;
45318;SDS011;31057;48.498;32.260;2023-12-28T00:30:25;15.95;;;9.88;;
45318;SDS011;31057;48.498;32.260;2023-12-28T00:32:28;19.58;;;9.77;;
45318;SDS011;31057;48.498;32.260;2023-12-28T00:34:29;12.93;;;8.27;;
45318;SDS011;31057;48.498;32.260;2023-12-28T00:38:33;13.30;;;7.80;;
45318;SDS011;31057;48.498;32.260;2023-12-28T00:40:35;17.67;;;8.68;;
45318;SDS011;31057;48.498;32.260;2023-12-28T00:42:37;14.45;;;8.48;;
45318;SDS011;31057;48.498;32.260;2023-12-28T00:44:42;9.98;;;7.45;;
45318;SDS011;31057;48.498;32.260;2023-12-28T00:46:44;14.10;;;6.18;;
45318;SDS011;31057;48.498;32.260;2023-12-28T00:50:48;10.68;;;5.72;;
45318;SDS011;31057;48.498;32.260;2023-12-28T00:52:50;8.98;;;5.45;;
45318;SDS011;31057;48.498;32.260;2023-12-28T00:54:52;18.23;;;8.18;;
45318;SDS011;31057;48.498;32.260;2023-12-28T01:00:58;16.08;;;7.70;;
45318;SDS011;31057;48.498;32.260;2023-12-28T01:03:00;14.98;;;7.30;;
45318;SDS011;31057;48.498;32.260;2023-12-28T01:05:02;13.98;;;8.15;;
45318;SDS011;31057;48.498;32.260;2023-12-28T01:07:05;13.43;;;7.38;;
45318;SDS011;31057;48.498;32.260;2023-12-28T01:09:07;10.85;;;5.68;;
45318;SDS011;31057;48.498;32.260;2023-12-28T01:15:14;15.20;;;6.90;;
45318;SDS011;31057;48.498;32.260;2023-12-28T01:17:16;12.68;;;5.70;;
45318;SDS011;31057;48.498;32.260;2023-12-28T01:19:20;22.17;;;11.05;;
45318;SDS011;31057;48.498;32.260;2023-12-28T01:21:22;18.85;;;9.00;;
45318;SDS011;31057;48.498;32.260;2023-12-28T01:23:26;20.33;;;9.30;;
45318;SDS011;31057;48.498;32.260;2023-12-28T01:25:28;12.48;;;6.57;;
45318;SDS011;31057;48.498;32.260;2023-12-28T01:29:31;23.17;;;11.13;;
45318;SDS011;31057;48.498;32.260;2023-12-28T01:31:35;20.63;;;8.90;;
45318;SDS011;31057;48.498;32.260;2023-12-28T01:35:39;28.77;;;11.43;;
45318;SDS011;31057;48.498;32.260;2023-12-28T01:37:42;11.70;;;7.25;;
45318;SDS011;31057;48.498;32.260;2023-12-28T01:39:44;13.00;;;6.65;;
45318;SDS011;31057;48.498;32.260;2023-12-28T01:41:46;10.40;;;5.75;;
45318;SDS011;31057;48.498;32.260;2023-12-28T01:45:50;8.88;;;4.28;;
45318;SDS011;31057;48.498;32.260;2023-12-28T01:47:52;7.97;;;4.60;;
45318;SDS011;31057;48.498;32.260;2023-12-28T01:49:58;7.90;;;4.88;;
45318;SDS011;31057;48.498;32.260;2023-12-28T01:52:02;9.95;;;3.92;;
45318;SDS011;31057;48.498;32.260;2023-12-28T01:54:05;7.47;;;4.40;;
45318;SDS011;31057;48.498;32.260;2023-12-28T01:58:09;8.23;;;4.47;;
45318;SDS011;31057;48.498;32.260;2023-12-28T02:00:12;6.68;;;4.00;;
45318;SDS011;31057;48.498;32.260;2023-12-28T02:02:14;7.80;;;4.75;;
45318;SDS011;31057;48.498;32.260;2023-12-28T02:06:18;6.38;;;4.15;;
45318;SDS011;31057;48.498;32.260;2023-12-28T02:08:24;6.93;;;5.07;;
45318;SDS011;31057;48.498;32.260;2023-12-28T02:10:26;9.07;;;5.55;;
45318;SDS011;31057;48.498;32.260;2023-12-28T02:12:29;6.93;;;4.30;;
45318;SDS011;31057;48.498;32.260;2023-12-28T02:16:33;13.65;;;6.35;;
45318;SDS011;31057;48.498;32.260;2023-12-28T02:18:43;10.77;;;5.50;;
45318;SDS011;31057;48.498;32.260;2023-12-28T02:20:48;11.48;;;7.28;;
45318;SDS011;31057;48.498;32.260;2023-12-28T02:22:51;10.15;;;5.13;;
45318;SDS011;31057;48.498;32.260;2023-12-28T02:27:02;13.55;;;7.25;;
45318;SDS011;31057;48.498;32.260;2023-12-28T02:29:04;12.65;;;4.75;;
45318;SDS011;31057;48.498;32.260;2023-12-28T02:31:06;11.27;;;5.72;;
45318;SDS011;31057;48.498;32.260;2023-12-28T02:33:13;8.73;;;4.72;;
45318;SDS011;31057;48.498;32.260;2023-12-28T02:35:41;7.78;;;5.72;;
45318;SDS011;31057;48.498;32.260;2023-12-28T02:37:46;8.95;;;5.20;;
45318;SDS011;31057;48.498;32.260;2023-12-28T02:39:50;5.97;;;4.28;;
45318;SDS011;31057;48.498;32.260;2023-12-28T02:41:54;11.05;;;5.07;;
45318;SDS011;31057;48.498;32.260;2023-12-28T02:43:57;10.60;;;5.80;;
45318;SDS011;31057;48.498;32.260;2023-12-28T02:48:01;8.93;;;5.07;;
45318;SDS011;31057;48.498;32.260;2023-12-28T02:50:04;11.07;;;6.65;;
45318;SDS011;31057;48.498;32.260;2023-12-28T02:52:07;10.52;;;5.00;;
45318;SDS011;31057;48.498;32.260;2023-12-28T02:54:09;9.77;;;6.50;;
45318;SDS011;31057;48.498;32.260;2023-12-28T02:58:12;11.40;;;8.88;;
45318;SDS011;31057;48.498;32.260;2023-12-28T03:00:14;12.10;;;9.02;;
45318;SDS011;31057;48.498;32.260;2023-12-28T03:02:17;22.70;;;15.57;;
45318;SDS011;31057;48.498;32.260;2023-12-28T03:06:20;11.30;;;7.72;;
45318;SDS011;31057;48.498;32.260;2023-12-28T03:10:24;11.05;;;7.22;;
45318;SDS011;31057;48.498;32.260;2023-12-28T03:12:27;13.27;;;7.50;;
45318;SDS011;31057;48.498;32.260;2023-12-28T03:14:29;19.25;;;10.13;;
45318;SDS011;31057;48.498;32.260;2023-12-28T03:18:35;21.27;;;16.40;;
45318;SDS011;31057;48.498;32.260;2023-12-28T03:20:37;15.45;;;11.52;;
45318;SDS011;31057;48.498;32.260;2023-12-28T03:24:42;19.20;;;12.15;;
45318;SDS011;31057;48.498;32.260;2023-12-28T03:26:45;19.10;;;15.50;;
45318;SDS011;31057;48.498;32.260;2023-12-28T03:30:48;18.90;;;13.68;;
45318;SDS011;31057;48.498;32.260;2023-12-28T03:32:51;16.70;;;11.20;;
45318;SDS011;31057;48.498;32.260;2023-12-28T03:34:53;17.83;;;11.10;;
45318;SDS011;31057;48.498;32.260;2023-12-28T03:36:55;14.52;;;9.82;;
45318;SDS011;31057;48.498;32.260;2023-12-28T03:38:58;22.13;;;9.25;;
45318;SDS011;31057;48.498;32.260;2023-12-28T03:43:02;22.52;;;12.27;;
45318;SDS011;31057;48.498;32.260;2023-12-28T03:47:07;35.72;;;16.17;;
45318;SDS011;31057;48.498;32.260;2023-12-28T03:49:09;22.15;;;9.13;;
45318;SDS011;31057;48.498;32.260;2023-12-28T03:51:14;20.80;;;11.20;;
45318;SDS011;31057;48.498;32.260;2023-12-28T03:53:17;22.15;;;14.18;;
45318;SDS011;31057;48.498;32.260;2023-12-28T03:55:19;25.15;;;20.35;;
45318;SDS011;31057;48.498;32.260;2023-12-28T03:57:21;15.85;;;13.40;;
45318;SDS011;31057;48.498;32.260;2023-12-28T03:59:23;13.55;;;9.50;;
45318;SDS011;31057;48.498;32.260;2023-12-28T04:03:27;17.33;;;11.52;;
45318;SDS011;31057;48.498;32.260;2023-12-28T04:07:31;16.73;;;13.65;;
45318;SDS011;31057;48.498;32.260;2023-12-28T04:09:33;26.88;;;22.90;;
45318;SDS011;31057;48.498;32.260;2023-12-28T04:11:35;23.15;;;17.65;;
45318;SDS011;31057;48.498;32.260;2023-12-28T04:13:37;18.48;;;14.63;;
45318;SDS011;31057;48.498;32.260;2023-12-28T04:15:41;13.65;;;10.45;;
45318;SDS011;31057;48.498;32.260;2023-12-28T04:17:44;19.90;;;12.80;;
45318;SDS011;31057;48.498;32.260;2023-12-28T04:19:46;14.25;;;11.27;;
45318;SDS011;31057;48.498;32.260;2023-12-28T04:23:50;17.20;;;10.32;;
45318;SDS011;31057;48.498;32.260;2023-12-28T04:25:52;13.55;;;8.32;;
45318;SDS011;31057;48.498;32.260;2023-12-28T04:29:56;9.93;;;7.00;;
45318;SDS011;31057;48.498;32.260;2023-12-28T04:31:58;10.25;;;6.72;;
45318;SDS011;31057;48.498;32.260;2023-12-28T04:34:00;12.00;;;8.25;;
45318;SDS011;31057;48.498;32.260;2023-12-28T04:36:03;12.18;;;6.88;;
45318;SDS011;31057;48.498;32.260;2023-12-28T04:38:08;8.73;;;6.25;;
45318;SDS011;31057;48.498;32.260;2023-12-28T04:40:10;15.43;;;7.90;;
45318;SDS011;31057;48.498;32.260;2023-12-28T04:42:13;11.80;;;8.65;;
45318;SDS011;31057;48.498;32.260;2023-12-28T04:44:15;13.82;;;8.90;;
45318;SDS011;31057;48.498;32.260;2023-12-28T04:46:17;15.40;;;8.38;;
45318;SDS011;31057;48.498;32.260;2023-12-28T04:50:22;14.07;;;7.22;;
45318;SDS011;31057;48.498;32.260;2023-12-28T04:52:26;12.25;;;6.93;;
45318;SDS011;31057;48.498;32.260;2023-12-28T04:54:28;13.93;;;6.38;;
45318;SDS011;31057;48.498;32.260;2023-12-28T04:58:32;16.80;;;9.35;;
45318;SDS011;31057;48.498;32.260;2023-12-28T05:02:36;12.48;;;8.25;;
45318;SDS011;31057;48.498;32.260;2023-12-28T05:04:38;17.30;;;9.85;;
45318;SDS011;31057;48.498;32.260;2023-12-28T05:06:40;19.52;;;14.13;;
45318;SDS011;31057;48.498;32.260;2023-12-28T05:10:44;35.75;;;24.77;;
45318;SDS011;31057;48.498;32.260;2023-12-28T05:14:48;27.52;;;14.55;;
45318;SDS011;31057;48.498;32.260;2023-12-28T05:16:50;22.63;;;16.55;;
45318;SDS011;31057;48.498;32.260;2023-12-28T05:20:54;20.23;;;12.82;;
45318;SDS011;31057;48.498;32.260;2023-12-28T05:24:57;14.02;;;8.38;;
45318;SDS011;31057;48.498;32.260;2023-12-28T05:29:01;15.20;;;7.00;;
45318;SDS011;31057;48.498;32.260;2023-12-28T05:33:06;11.40;;;6.85;;
45318;SDS011;31057;48.498;32.260;2023-12-28T05:35:09;11.93;;;8.35;;
45318;SDS011;31057;48.498;32.260;2023-12-28T05:37:11;17.70;;;9.30;;
45318;SDS011;31057;48.498;32.260;2023-12-28T05:39:13;12.95;;;8.70;;
45318;SDS011;31057;48.498;32.260;2023-12-28T05:41:15;13.27;;;9.48;;
45318;SDS011;31057;48.498;32.260;2023-12-28T05:43:17;15.55;;;9.02;;
45318;SDS011;31057;48.498;32.260;2023-12-28T05:45:19;12.85;;;7.88;;
45318;SDS011;31057;48.498;32.260;2023-12-28T05:49:23;13.23;;;6.47;;
45318;SDS011;31057;48.498;32.260;2023-12-28T05:51:26;12.43;;;6.75;;
45318;SDS011;31057;48.498;32.260;2023-12-28T05:55:30;15.77;;;7.90;;
45318;SDS011;31057;48.498;32.260;2023-12-28T05:59:37;18.13;;;9.88;;
45318;SDS011;31057;48.498;32.260;2023-12-28T06:01:43;15.95;;;8.57;;
45318;SDS011;31057;48.498;32.260;2023-12-28T06:03:45;26.67;;;9.20;;
45318;SDS011;31057;48.498;32.260;2023-12-28T06:05:51;13.63;;;7.82;;
45318;SDS011;31057;48.498;32.260;2023-12-28T06:09:54;23.38;;;12.80;;
45318;SDS011;31057;48.498;32.260;2023-12-28T06:13:58;27.85;;;13.23;;
45318;SDS011;31057;48.498;32.260;2023-12-28T06:16:00;21.35;;;11.52;;
45318;SDS011;31057;48.498;32.260;2023-12-28T06:18:02;17.30;;;10.93;;
45318;SDS011;31057;48.498;32.260;2023-12-28T06:20:06;13.30;;;8.43;;
45318;SDS011;31057;48.498;32.260;2023-12-28T06:22:09;16.50;;;8.68;;
45318;SDS011;31057;48.498;32.260;2023-12-28T06:24:11;15.25;;;8.40;;
45318;SDS011;31057;48.498;32.260;2023-12-28T06:28:15;13.38;;;7.85;;
45318;SDS011;31057;48.498;32.260;2023-12-28T06:32:19;14.57;;;8.73;;
45318;SDS011;31057;48.498;32.260;2023-12-28T06:34:25;13.63;;;7.45;;
45318;SDS011;31057;48.498;32.260;2023-12-28T06:36:28;12.55;;;7.70;;
45318;SDS011;31057;48.498;32.260;2023-12-28T06:38:30;17.90;;;9.52;;
45318;SDS011;31057;48.498;32.260;2023-12-28T06:40:33;20.67;;;9.48;;
45318;SDS011;31057;48.498;32.260;2023-12-28T06:42:35;24.70;;;11.15;;
45318;SDS011;31057;48.498;32.260;2023-12-28T06:46:38;17.90;;;10.68;;
45318;SDS011;31057;48.498;32.260;2023-12-28T06:50:42;23.95;;;10.48;;
45318;SDS011;31057;48.498;32.260;2023-12-28T06:52:44;25.15;;;12.05;;
45318;SDS011;31057;48.498;32.260;2023-12-28T06:56:52;21.55;;;11.48;;
45318;SDS011;31057;48.498;32.260;2023-12-28T06:58:53;17.58;;;10.48;;
45318;SDS011;31057;48.498;32.260;2023-12-28T07:00:55;18.58;;;9.13;;
45318;SDS011;31057;48.498;32.260;2023-12-28T07:02:58;25.40;;;12.15;;
45318;SDS011;31057;48.498;32.260;2023-12-28T07:07:03;25.15;;;13.52;;
45318;SDS011;31057;48.498;32.260;2023-12-28T07:09:05;20.60;;;13.48;;
45318;SDS011;31057;48.498;32.260;2023-12-28T07:11:09;27.38;;;15.27;;
45318;SDS011;31057;48.498;32.260;2023-12-28T07:13:12;24.70;;;14.00;;
45318;SDS011;31057;48.498;32.260;2023-12-28T07:15:14;26.27;;;15.02;;
45318;SDS011;31057;48.498;32.260;2023-12-28T07:17:16;26.40;;;14.35;;
45318;SDS011;31057;48.498;32.260;2023-12-28T07:19:18;24.40;;;14.50;;
45318;SDS011;31057;48.498;32.260;2023-12-28T07:23:22;15.20;;;9.73;;
45318;SDS011;31057;48.498;32.260;2023-12-28T07:27:26;19.23;;;10.70;;
45318;SDS011;31057;48.498;32.260;2023-12-28T07:29:28;27.27;;;10.93;;
45318;SDS011;31057;48.498;32.260;2023-12-28T07:31:30;16.27;;;8.20;;
45318;SDS011;31057;48.498;32.260;2023-12-28T07:33:33;14.25;;;8.30;;
45318;SDS011;31057;48.498;32.260;2023-12-28T07:39:40;12.82;;;7.53;;
45318;SDS011;31057;48.498;32.260;2023-12-28T07:43:44;11.10;;;6.80;;
45318;SDS011;31057;48.498;32.260;2023-12-28T07:45:46;16.88;;;8.68;;
45318;SDS011;31057;48.498;32.260;2023-12-28T07:49:51;15.32;;;9.35;;
45318;SDS011;31057;48.498;32.260;2023-12-28T07:51:54;16.92;;;10.15;;
45318;SDS011;31057;48.498;32.260;2023-12-28T07:55:58;16.95;;;10.35;;
45318;SDS011;31057;48.498;32.260;2023-12-28T08:00:02;14.88;;;9.95;;
45318;SDS011;31057;48.498;32.260;2023-12-28T08:02:05;15.05;;;7.80;;
45318;SDS011;31057;48.498;32.260;2023-12-28T08:04:07;13.85;;;8.68;;
45318;SDS011;31057;48.498;32.260;2023-12-28T08:06:09;15.63;;;8.30;;
45318;SDS011;31057;48.498;32.260;2023-12-28T08:08:14;18.02;;;9.63;;
45318;SDS011;31057;48.498;32.260;2023-12-28T08:10:16;12.20;;;7.80;;
45318;SDS011;31057;48.498;32.260;2023-12-28T08:12:18;11.38;;;7.15;;
45318;SDS011;31057;48.498;32.260;2023-12-28T08:14:22;14.13;;;8.65;;
45318;SDS011;31057;48.498;32.260;2023-12-28T08:18:26;14.70;;;8.80;;
45318;SDS011;31057;48.498;32.260;2023-12-28T08:20:28;15.05;;;8.48;;
45318;SDS011;31057;48.498;32.260;2023-12-28T08:22:30;14.30;;;9.35;;
45318;SDS011;31057;48.498;32.260;2023-12-28T08:24:32;20.42;;;11.55;;
45318;SDS011;31057;48.498;32.260;2023-12-28T08:26:34;19.60;;;10.50;;
45318;SDS011;31057;48.498;32.260;2023-12-28T08:28:37;18.95;;;11.23;;
45318;SDS011;31057;48.498;32.260;2023-12-28T08:30:39;17.83;;;10.18;;
45318;SDS011;31057;48.498;32.260;2023-12-28T08:34:43;18.35;;;9.93;;
45318;SDS011;31057;48.498;32.260;2023-12-28T08:36:45;22.75;;;11.20;;
45318;SDS011;31057;48.498;32.260;2023-12-28T08:38:47;20.20;;;9.90;;
45318;SDS011;31057;48.498;32.260;2023-12-28T08:40:49;15.77;;;8.85;;
45318;SDS011;31057;48.498;32.260;2023-12-28T08:42:52;18.10;;;9.13;;
45318;SDS011;31057;48.498;32.260;2023-12-28T08:46:56;15.88;;;9.90;;
45318;SDS011;31057;48.498;32.260;2023-12-28T08:48:58;14.90;;;8.68;;
45318;SDS011;31057;48.498;32.260;2023-12-28T08:51:00;15.13;;;8.35;;
45318;SDS011;31057;48.498;32.260;2023-12-28T08:53:02;12.80;;;8.80;;
45318;SDS011;31057;48.498;32.260;2023-12-28T08:57:06;20.13;;;10.43;;
45318;SDS011;31057;48.498;32.260;2023-12-28T09:01:19;14.45;;;8.82;;
45318;SDS011;31057;48.498;32.260;2023-12-28T09:03:26;17.60;;;9.82;;
45318;SDS011;31057;48.498;32.260;2023-12-28T09:07:31;17.58;;;8.15;;
45318;SDS011;31057;48.498;32.260;2023-12-28T09:09:33;11.40;;;7.30;;
45318;SDS011;31057;48.498;32.260;2023-12-28T09:11:35;11.85;;;7.65;;
45318;SDS011;31057;48.498;32.260;2023-12-28T09:13:37;13.77;;;7.65;;
45318;SDS011;31057;48.498;32.260;2023-12-28T09:15:40;9.77;;;7.47;;
45318;SDS011;31057;48.498;32.260;2023-12-28T09:17:42;15.13;;;7.43;;
45318;SDS011;31057;48.498;32.260;2023-12-28T09:19:44;14.23;;;7.05;;
45318;SDS011;31057;48.498;32.260;2023-12-28T09:23:48;12.48;;;8.27;;
45318;SDS011;31057;48.498;32.260;2023-12-28T09:25:50;11.90;;;7.80;;
45318;SDS011;31057;48.498;32.260;2023-12-28T09:27:52;16.90;;;9.63;;
45318;SDS011;31057;48.498;32.260;2023-12-28T09:29:55;11.35;;;7.45;;
45318;SDS011;31057;48.498;32.260;2023-12-28T09:31:57;12.93;;;7.93;;
45318;SDS011;31057;48.498;32.260;2023-12-28T09:33:58;13.73;;;8.32;;
45318;SDS011;31057;48.498;32.260;2023-12-28T09:36:02;15.63;;;9.07;;
45318;SDS011;31057;48.498;32.260;2023-12-28T09:38:05;12.13;;;7.35;;
45318;SDS011;31057;48.498;32.260;2023-12-28T09:40:07;20.42;;;10.63;;
45318;SDS011;31057;48.498;32.260;2023-12-28T09:42:16;13.55;;;9.00;;
45318;SDS011;31057;48.498;32.260;2023-12-28T09:44:26;15.77;;;8.30;;
45318;SDS011;31057;48.498;32.260;2023-12-28T09:46:30;18.25;;;8.45;;
45318;SDS011;31057;48.498;32.260;2023-12-28T09:48:33;15.68;;;8.60;;
45318;SDS011;31057;48.498;32.260;2023-12-28T09:50:36;15.77;;;8.75;;
45318;SDS011;31057;48.498;32.260;2023-12-28T09:52:38;16.55;;;8.15;;
45318;SDS011;31057;48.498;32.260;2023-12-28T09:56:42;19.88;;;10.73;;
45318;SDS011;31057;48.498;32.260;2023-12-28T09:58:44;15.95;;;9.65;;
45318;SDS011;31057;48.498;32.260;2023-12-28T10:00:50;16.02;;;9.13;;
45318;SDS011;31057;48.498;32.260;2023-12-28T10:02:52;14.52;;;8.45;;
45318;SDS011;31057;48.498;32.260;2023-12-28T10:04:54;15.82;;;8.77;;
45318;SDS011;31057;48.498;32.260;2023-12-28T10:06:56;16.80;;;8.65;;
45318;SDS011;31057;48.498;32.260;2023-12-28T10:08:59;16.33;;;7.65;;
45318;SDS011;31057;48.498;32.260;2023-12-28T10:11:02;12.30;;;7.97;;
45318;SDS011;31057;48.498;32.260;2023-12-28T10:13:05;15.07;;;8.63;;
45318;SDS011;31057;48.498;32.260;2023-12-28T10:15:09;17.70;;;9.70;;
45318;SDS011;31057;48.498;32.260;2023-12-28T10:17:11;13.45;;;7.43;;
45318;SDS011;31057;48.498;32.260;2023-12-28T10:19:13;13.10;;;6.30;;
45318;SDS011;31057;48.498;32.260;2023-12-28T10:23:17;16.13;;;6.97;;
45318;SDS011;31057;48.498;32.260;2023-12-28T10:25:20;14.75;;;7.18;;
45318;SDS011;31057;48.498;32.260;2023-12-28T10:27:22;15.77;;;7.10;;
45318;SDS011;31057;48.498;32.260;2023-12-28T10:29:25;14.60;;;8.88;;
45318;SDS011;31057;48.498;32.260;2023-12-28T10:31:28;13.35;;;7.85;;
45318;SDS011;31057;48.498;32.260;2023-12-28T10:33:37;15.55;;;7.10;;
45318;SDS011;31057;48.498;32.260;2023-12-28T10:35:40;11.50;;;6.72;;
45318;SDS011;31057;48.498;32.260;2023-12-28T10:37:42;11.27;;;6.60;;
45318;SDS011;31057;48.498;32.260;2023-12-28T10:39:46;19.25;;;11.50;;
45318;SDS011;31057;48.498;32.260;2023-12-28T10:41:51;16.95;;;7.82;;
45318;SDS011;31057;48.498;32.260;2023-12-28T10:46:11;19.63;;;11.05;;
45318;SDS011;31057;48.498;32.260;2023-12-28T10:48:28;14.20;;;8.98;;
45318;SDS011;31057;48.498;32.260;2023-12-28T10:52:41;13.90;;;8.13;;
45318;SDS011;31057;48.498;32.260;2023-12-28T10:54:47;16.88;;;9.40;;
45318;SDS011;31057;48.498;32.260;2023-12-28T11:01:41;18.42;;;10.38;;
45318;SDS011;31057;48.498;32.260;2023-12-28T11:03:45;16.83;;;10.68;;
45318;SDS011;31057;48.498;32.260;2023-12-28T11:05:52;18.63;;;11.95;;
45318;SDS011;31057;48.498;32.260;2023-12-28T11:07:57;13.30;;;7.32;;
45318;SDS011;31057;48.498;32.260;2023-12-28T11:10:02;12.52;;;7.70;;
45318;SDS011;31057;48.498;32.260;2023-12-28T11:12:07;12.68;;;6.50;;
45318;SDS011;31057;48.498;32.260;2023-12-28T11:14:16;14.82;;;7.28;;
45318;SDS011;31057;48.498;32.260;2023-12-28T11:16:19;16.45;;;7.18;;
45318;SDS011;31057;48.498;32.260;2023-12-28T11:18:23;8.43;;;6.28;;
45318;SDS011;31057;48.498;32.260;2023-12-28T11:20:27;13.00;;;6.38;;
45318;SDS011;31057;48.498;32.260;2023-12-28T11:22:30;10.07;;;6.95;;
45318;SDS011;31057;48.498;32.260;2023-12-28T11:24:34;13.82;;;6.82;;
45318;SDS011;31057;48.498;32.260;2023-12-28T11:26:36;14.77;;;6.45;;
45318;SDS011;31057;48.498;32.260;2023-12-28T11:28:38;22.05;;;7.25;;
45318;SDS011;31057;48.498;32.260;2023-12-28T11:30:41;16.92;;;7.15;;
45318;SDS011;31057;48.498;32.260;2023-12-28T11:32:44;10.32;;;6.32;;
45318;SDS011;31057;48.498;32.260;2023-12-28T11:34:55;11.10;;;6.13;;
45318;SDS011;31057;48.498;32.260;2023-12-28T11:37:00;9.18;;;5.85;;
45318;SDS011;31057;48.498;32.260;2023-12-28T11:39:07;12.40;;;5.25;;
45318;SDS011;31057;48.498;32.260;2023-12-28T11:41:09;11.73;;;6.00;;
45318;SDS011;31057;48.498;32.260;2023-12-28T11:43:14;17.48;;;6.28;;
45318;SDS011;31057;48.498;32.260;2023-12-28T11:45:20;13.73;;;7.07;;
45318;SDS011;31057;48.498;32.260;2023-12-28T11:47:24;12.88;;;7.78;;
45318;SDS011;31057;48.498;32.260;2023-12-28T11:49:28;16.55;;;7.45;;
45318;SDS011;31057;48.498;32.260;2023-12-28T11:51:32;17.92;;;6.57;;
45318;SDS011;31057;48.498;32.260;2023-12-28T11:53:35;12.88;;;7.88;;
45318;SDS011;31057;48.498;32.260;2023-12-28T11:55:38;18.20;;;8.57;;
45318;SDS011;31057;48.498;32.260;2023-12-28T11:57:40;18.27;;;9.10;;
45318;SDS011;31057;48.498;32.260;2023-12-28T11:59:43;13.10;;;9.27;;
45318;SDS011;31057;48.498;32.260;2023-12-28T12:01:54;19.90;;;9.57;;
45318;SDS011;31057;48.498;32.260;2023-12-28T12:03:56;9.95;;;7.97;;
45318;SDS011;31057;48.498;32.260;2023-12-28T12:05:59;11.88;;;7.00;;
45318;SDS011;31057;48.498;32.260;2023-12-28T12:10:03;12.25;;;5.82;;
45318;SDS011;31057;48.498;32.260;2023-12-28T12:12:06;13.18;;;6.50;;
45318;SDS011;31057;48.498;32.260;2023-12-28T12:14:09;12.60;;;8.23;;
45318;SDS011;31057;48.498;32.260;2023-12-28T12:16:13;15.23;;;7.18;;
45318;SDS011;31057;48.498;32.260;2023-12-28T12:18:15;15.50;;;7.45;;
45318;SDS011;31057;48.498;32.260;2023-12-28T12:20:18;16.50;;;7.38;;
45318;SDS011;31057;48.498;32.260;2023-12-28T12:22:20;16.17;;;7.63;;
45318;SDS011;31057;48.498;32.260;2023-12-28T12:24:25;15.70;;;7.15;;
45318;SDS011;31057;48.498;32.260;2023-12-28T12:28:31;12.13;;;5.95;;
45318;SDS011;31057;48.498;32.260;2023-12-28T12:30:34;18.85;;;8.18;;
45318;SDS011;31057;48.498;32.260;2023-12-28T12:32:36;20.67;;;8.82;;
45318;SDS011;31057;48.498;32.260;2023-12-28T12:34:44;20.85;;;9.23;;
45318;SDS011;31057;48.498;32.260;2023-12-28T12:36:47;26.55;;;10.38;;
45318;SDS011;31057;48.498;32.260;2023-12-28T12:38:50;20.73;;;10.68;;
45318;SDS011;31057;48.498;32.260;2023-12-28T12:40:52;26.00;;;11.50;;
45318;SDS011;31057;48.498;32.260;2023-12-28T12:42:54;19.10;;;8.95;;
45318;SDS011;31057;48.498;32.260;2023-12-28T12:44:57;20.48;;;8.77;;
45318;SDS011;31057;48.498;32.260;2023-12-28T12:49:01;27.83;;;10.52;;
45318;SDS011;31057;48.498;32.260;2023-12-28T12:51:06;18.65;;;9.18;;
45318;SDS011;31057;48.498;32.260;2023-12-28T12:53:08;22.30;;;8.80;;
45318;SDS011;31057;48.498;32.260;2023-12-28T12:55:10;16.88;;;8.07;;
45318;SDS011;31057;48.498;32.260;2023-12-28T12:57:13;18.10;;;8.10;;
45318;SDS011;31057;48.498;32.260;2023-12-28T13:01:19;22.00;;;7.68;;
45318;SDS011;31057;48.498;32.260;2023-12-28T13:03:21;16.58;;;7.85;;
45318;SDS011;31057;48.498;32.260;2023-12-28T13:05:23;23.65;;;10.93;;
45318;SDS011;31057;48.498;32.260;2023-12-28T13:07:27;19.83;;;9.02;;
45318;SDS011;31057;48.498;32.260;2023-12-28T13:09:29;24.00;;;9.05;;
45318;SDS011;31057;48.498;32.260;2023-12-28T13:11:31;28.05;;;9.45;;
45318;SDS011;31057;48.498;32.260;2023-12-28T13:13:33;18.05;;;9.95;;
45318;SDS011;31057;48.498;32.260;2023-12-28T13:15:36;21.27;;;10.27;;
45318;SDS011;31057;48.498;32.260;2023-12-28T13:17:38;30.05;;;11.57;;
45318;SDS011;31057;48.498;32.260;2023-12-28T13:23:45;17.35;;;9.20;;
45318;SDS011;31057;48.498;32.260;2023-12-28T13:25:47;18.73;;;9.25;;
45318;SDS011;31057;48.498;32.260;2023-12-28T13:27:49;21.35;;;10.32;;
45318;SDS011;31057;48.498;32.260;2023-12-28T13:31:53;23.95;;;11.30;;
45318;SDS011;31057;48.498;32.260;2023-12-28T13:33:55;19.90;;;10.63;;
45318;SDS011;31057;48.498;32.260;2023-12-28T13:36:00;28.88;;;11.13;;
45318;SDS011;31057;48.498;32.260;2023-12-28T13:38:02;25.88;;;11.25;;
45318;SDS011;31057;48.498;32.260;2023-12-28T13:42:08;32.10;;;14.35;;
45318;SDS011;31057;48.498;32.260;2023-12-28T13:44:10;38.45;;;14.88;;
45318;SDS011;31057;48.498;32.260;2023-12-28T13:46:13;29.33;;;13.93;;
45318;SDS011;31057;48.498;32.260;2023-12-28T13:48:15;31.77;;;14.63;;
45318;SDS011;31057;48.498;32.260;2023-12-28T13:50:18;35.92;;;15.77;;
45318;SDS011;31057;48.498;32.260;2023-12-28T13:52:21;39.45;;;16.55;;
45318;SDS011;31057;48.498;32.260;2023-12-28T13:54:23;42.40;;;14.35;;
45318;SDS011;31057;48.498;32.260;2023-12-28T13:56:25;24.67;;;11.43;;
45318;SDS011;31057;48.498;32.260;2023-12-28T13:58:27;21.98;;;11.02;;
45318;SDS011;31057;48.498;32.260;2023-12-28T14:00:29;19.40;;;9.88;;
45318;SDS011;31057;48.498;32.260;2023-12-28T14:02:31;17.42;;;10.45;;
45318;SDS011;31057;48.498;32.260;2023-12-28T14:04:33;22.55;;;11.07;;
45318;SDS011;31057;48.498;32.260;2023-12-28T14:06:35;21.83;;;10.48;;
45318;SDS011;31057;48.498;32.260;2023-12-28T14:10:40;21.77;;;10.88;;
45318;SDS011;31057;48.498;32.260;2023-12-28T14:14:44;19.48;;;12.73;;
45318;SDS011;31057;48.498;32.260;2023-12-28T14:16:45;25.17;;;14.68;;
45318;SDS011;31057;48.498;32.260;2023-12-28T14:18:48;33.92;;;14.00;;
45318;SDS011;31057;48.498;32.260;2023-12-28T14:20:50;30.60;;;16.05;;
45318;SDS011;31057;48.498;32.260;2023-12-28T14:24:54;44.72;;;22.70;;
45318;SDS011;31057;48.498;32.260;2023-12-28T14:26:56;39.58;;;22.38;;
45318;SDS011;31057;48.498;32.260;2023-12-28T14:28:59;42.85;;;24.25;;
45318;SDS011;31057;48.498;32.260;2023-12-28T14:31:05;36.63;;;21.35;;
45318;SDS011;31057;48.498;32.260;2023-12-28T14:33:09;29.58;;;19.05;;
45318;SDS011;31057;48.498;32.260;2023-12-28T14:35:12;42.95;;;22.65;;
45318;SDS011;31057;48.498;32.260;2023-12-28T14:37:18;55.78;;;24.50;;
45318;SDS011;31057;48.498;32.260;2023-12-28T14:39:20;41.60;;;19.10;;
45318;SDS011;31057;48.498;32.260;2023-12-28T14:41:22;35.53;;;16.77;;
45318;SDS011;31057;48.498;32.260;2023-12-28T14:45:26;34.40;;;16.85;;
45318;SDS011;31057;48.498;32.260;2023-12-28T14:47:29;35.47;;;18.58;;